sensor_id;sensor_type;location;lat;lon;timestamp;temperature;humidity
1678;DHT22;6034;46.864;15.216;2023-03-01T06:05:14;2.10;99.90
1678;DHT22;6034;46.864;15.216;2023-03-01T06:07:42;2.10;99.90
1678;DHT22;6034;46.864;15.216;2023-03-01T06:10:11;2.10;99.90
1678;DHT22;6034;46.864;15.216;2023-03-01T06:12:40;2.10;99.90
1678;DHT22;6034;46.864;15.216;2023-03-01T06:15:09;2.10;99.90
1678;DHT22;6034;46.864;15.216;2023-03-01T06:17:38;2.10;99.90
1678;DHT22;6034;46.864;15.216;2023-03-01T06:20:09;2.10;99.90
1678;DHT22;6034;46.864;15.216;2023-03-01T06:22:38;2.10;99.90
1678;DHT22;6034;46.864;15.216;2023-03-01T06:25:07;2.10;99.90
1678;DHT22;6034;46.864;15.216;2023-03-01T06:27:34;2.10;99.90
1678;DHT22;6034;46.864;15.216;2023-03-01T06:30:02;2.10;99.90
1678;DHT22;6034;46.864;15.216;2023-03-01T06:32:29;2.20;99.90
1678;DHT22;6034;46.864;15.216;2023-03-01T06:34:57;2.20;99.90
1678;DHT22;6034;46.864;15.216;2023-03-01T06:37:25;2.20;99.90
1678;DHT22;6034;46.864;15.216;2023-03-01T06:39:53;2.20;99.90
1678;DHT22;6034;46.864;15.216;2023-03-01T06:42:21;2.20;99.90
1678;DHT22;6034;46.864;15.216;2023-03-01T06:44:48;2.20;99.90
1678;DHT22;6034;46.864;15.216;2023-03-01T06:47:15;2.20;99.90
1678;DHT22;6034;46.864;15.216;2023-03-01T06:49:43;2.20;99.90
1678;DHT22;6034;46.864;15.216;2023-03-01T06:52:10;2.20;99.90
1678;DHT22;6034;46.864;15.216;2023-03-01T06:54:37;2.20;99.90
1678;DHT22;6034;46.864;15.216;2023-03-01T06:57:05;2.30;99.90
1678;DHT22;6034;46.864;15.216;2023-03-01T06:59:33;2.30;99.90
1678;DHT22;6034;46.864;15.216;2023-03-01T07:02:00;2.30;99.90
1678;DHT22;6034;46.864;15.216;2023-03-01T07:04:27;2.30;99.90
1678;DHT22;6034;46.864;15.216;2023-03-01T07:06:56;2.30;99.90
1678;DHT22;6034;46.864;15.216;2023-03-01T07:09:24;2.30;99.90
1678;DHT22;6034;46.864;15.216;2023-03-01T07:11:53;2.40;99.90
1678;DHT22;6034;46.864;15.216;2023-03-01T07:14:24;2.40;99.90
1678;DHT22;6034;46.864;15.216;2023-03-01T07:16:51;2.40;99.90
1678;DHT22;6034;46.864;15.216;2023-03-01T07:19:19;2.50;99.90
1678;DHT22;6034;46.864;15.216;2023-03-01T07:21:46;2.50;99.90
1678;DHT22;6034;46.864;15.216;2023-03-01T07:24:14;2.40;99.90
1678;DHT22;6034;46.864;15.216;2023-03-01T07:26:41;2.40;99.90
1678;DHT22;6034;46.864;15.216;2023-03-01T07:29:10;2.40;99.90
1678;DHT22;6034;46.864;15.216;2023-03-01T07:31:39;2.50;99.90
1678;DHT22;6034;46.864;15.216;2023-03-01T07:34:06;2.50;99.90
1678;DHT22;6034;46.864;15.216;2023-03-01T07:36:33;2.50;99.90
1678;DHT22;6034;46.864;15.216;2023-03-01T07:39:00;2.50;99.90
1678;DHT22;6034;46.864;15.216;2023-03-01T07:41:29;2.60;99.90
1678;DHT22;6034;46.864;15.216;2023-03-01T07:43:56;2.60;99.90
1678;DHT22;6034;46.864;15.216;2023-03-01T07:46:23;2.60;99.90
1678;DHT22;6034;46.864;15.216;2023-03-01T07:48:52;2.50;99.90
1678;DHT22;6034;46.864;15.216;2023-03-01T07:51:19;2.50;99.90
1678;DHT22;6034;46.864;15.216;2023-03-01T07:53:46;2.60;99.90
1678;DHT22;6034;46.864;15.216;2023-03-01T07:56:15;2.50;99.90
1678;DHT22;6034;46.864;15.216;2023-03-01T07:58:44;2.50;99.90
1678;DHT22;6034;46.864;15.216;2023-03-01T08:01:14;2.40;99.90
1678;DHT22;6034;46.864;15.216;2023-03-01T08:03:41;2.50;99.90
1678;DHT22;6034;46.864;15.216;2023-03-01T08:06:12;2.10;99.90
1678;DHT22;6034;46.864;15.216;2023-03-01T08:08:40;2.00;99.90
1678;DHT22;6034;46.864;15.216;2023-03-01T08:11:10;1.70;99.90
1678;DHT22;6034;46.864;15.216;2023-03-01T08:13:37;1.50;99.90
1678;DHT22;6034;46.864;15.216;2023-03-01T08:16:06;1.50;99.90
1678;DHT22;6034;46.864;15.216;2023-03-01T08:18:34;1.50;99.90
1678;DHT22;6034;46.864;15.216;2023-03-01T08:21:03;1.50;99.90
1678;DHT22;6034;46.864;15.216;2023-03-01T08:23:31;1.70;99.90
1678;DHT22;6034;46.864;15.216;2023-03-01T08:26:06;1.70;99.90
1678;DHT22;6034;46.864;15.216;2023-03-01T08:28:34;1.90;99.90
1678;DHT22;6034;46.864;15.216;2023-03-01T08:31:01;2.00;99.90
1678;DHT22;6034;46.864;15.216;2023-03-01T08:33:29;2.10;99.90
1678;DHT22;6034;46.864;15.216;2023-03-01T08:36:03;2.10;99.90
1678;DHT22;6034;46.864;15.216;2023-03-01T08:38:34;2.20;99.90
1678;DHT22;6034;46.864;15.216;2023-03-01T08:41:02;2.20;99.90
1678;DHT22;6034;46.864;15.216;2023-03-01T08:43:30;2.30;99.90
1678;DHT22;6034;46.864;15.216;2023-03-01T08:45:57;2.40;99.90
1678;DHT22;6034;46.864;15.216;2023-03-01T08:48:25;2.30;99.90
1678;DHT22;6034;46.864;15.216;2023-03-01T08:50:54;2.30;99.90
1678;DHT22;6034;46.864;15.216;2023-03-01T08:53:21;2.40;99.90
1678;DHT22;6034;46.864;15.216;2023-03-01T08:55:50;2.30;99.90
1678;DHT22;6034;46.864;15.216;2023-03-01T08:58:17;2.50;99.90
1678;DHT22;6034;46.864;15.216;2023-03-01T09:00:44;2.20;99.90
1678;DHT22;6034;46.864;15.216;2023-03-01T09:03:11;2.40;99.90
1678;DHT22;6034;46.864;15.216;2023-03-01T09:05:38;2.50;99.90
1678;DHT22;6034;46.864;15.216;2023-03-01T09:08:05;2.40;99.90
1678;DHT22;6034;46.864;15.216;2023-03-01T09:10:37;2.50;99.90
1678;DHT22;6034;46.864;15.216;2023-03-01T09:13:06;2.30;99.90
1678;DHT22;6034;46.864;15.216;2023-03-01T09:15:33;2.50;99.90
1678;DHT22;6034;46.864;15.216;2023-03-01T09:18:00;2.50;99.90
1678;DHT22;6034;46.864;15.216;2023-03-01T09:20:28;2.60;99.90
1678;DHT22;6034;46.864;15.216;2023-03-01T09:22:55;2.60;99.90
1678;DHT22;6034;46.864;15.216;2023-03-01T09:25:22;2.70;99.90
1678;DHT22;6034;46.864;15.216;2023-03-01T09:27:51;2.70;99.90
1678;DHT22;6034;46.864;15.216;2023-03-01T09:30:20;2.70;99.90
1678;DHT22;6034;46.864;15.216;2023-03-01T09:32:47;2.50;99.90
1678;DHT22;6034;46.864;15.216;2023-03-01T09:35:14;2.50;99.90
1678;DHT22;6034;46.864;15.216;2023-03-01T09:37:42;2.50;99.90
1678;DHT22;6034;46.864;15.216;2023-03-01T09:40:15;2.60;99.90
1678;DHT22;6034;46.864;15.216;2023-03-01T09:42:52;2.60;99.90
1678;DHT22;6034;46.864;15.216;2023-03-01T09:45:27;2.70;99.90
1678;DHT22;6034;46.864;15.216;2023-03-01T09:47:57;2.60;99.90
1678;DHT22;6034;46.864;15.216;2023-03-01T09:50:27;2.40;99.90
1678;DHT22;6034;46.864;15.216;2023-03-01T09:53:01;2.30;99.90
1678;DHT22;6034;46.864;15.216;2023-03-01T09:55:31;2.10;99.90
1678;DHT22;6034;46.864;15.216;2023-03-01T09:58:08;2.20;99.90
1678;DHT22;6034;46.864;15.216;2023-03-01T10:00:46;2.10;99.90
1678;DHT22;6034;46.864;15.216;2023-03-01T10:03:17;2.20;99.90
1678;DHT22;6034;46.864;15.216;2023-03-01T10:05:55;2.30;99.90
1678;DHT22;6034;46.864;15.216;2023-03-01T10:08:31;2.30;99.90
1678;DHT22;6034;46.864;15.216;2023-03-01T10:11:02;2.20;99.90
1678;DHT22;6034;46.864;15.216;2023-03-01T10:13:37;2.20;99.90
1678;DHT22;6034;46.864;15.216;2023-03-01T10:16:14;2.10;99.90
1678;DHT22;6034;46.864;15.216;2023-03-01T10:18:55;2.30;99.90
1678;DHT22;6034;46.864;15.216;2023-03-01T10:21:27;2.40;99.90
1678;DHT22;6034;46.864;15.216;2023-03-01T10:23:55;2.60;99.90
1678;DHT22;6034;46.864;15.216;2023-03-01T10:26:37;2.70;99.90
1678;DHT22;6034;46.864;15.216;2023-03-01T10:29:08;2.80;99.90
1678;DHT22;6034;46.864;15.216;2023-03-01T10:31:43;2.80;99.90
1678;DHT22;6034;46.864;15.216;2023-03-01T10:34:14;2.90;99.90
1678;DHT22;6034;46.864;15.216;2023-03-01T10:36:43;2.90;99.90
1678;DHT22;6034;46.864;15.216;2023-03-01T10:39:16;2.90;99.90
1678;DHT22;6034;46.864;15.216;2023-03-01T10:41:56;3.00;99.90
1678;DHT22;6034;46.864;15.216;2023-03-01T10:44:42;3.00;99.90
1678;DHT22;6034;46.864;15.216;2023-03-01T10:47:20;3.00;99.90
1678;DHT22;6034;46.864;15.216;2023-03-01T10:49:53;3.00;99.90
1678;DHT22;6034;46.864;15.216;2023-03-01T10:52:23;3.10;99.90
1678;DHT22;6034;46.864;15.216;2023-03-01T10:54:53;3.10;99.90
1678;DHT22;6034;46.864;15.216;2023-03-01T10:57:29;3.00;99.90
1678;DHT22;6034;46.864;15.216;2023-03-01T11:00:14;3.10;99.90
1678;DHT22;6034;46.864;15.216;2023-03-01T11:02:50;3.10;99.90
1678;DHT22;6034;46.864;15.216;2023-03-01T11:05:23;3.10;99.90
1678;DHT22;6034;46.864;15.216;2023-03-01T11:07:52;3.20;99.90
1678;DHT22;6034;46.864;15.216;2023-03-01T11:10:23;3.20;99.90
1678;DHT22;6034;46.864;15.216;2023-03-01T11:12:51;3.20;99.90
1678;DHT22;6034;46.864;15.216;2023-03-01T11:15:26;3.10;99.90
1678;DHT22;6034;46.864;15.216;2023-03-01T11:17:56;3.10;99.90
1678;DHT22;6034;46.864;15.216;2023-03-01T11:20:31;3.30;99.90
1678;DHT22;6034;46.864;15.216;2023-03-01T11:23:02;3.30;99.90
1678;DHT22;6034;46.864;15.216;2023-03-01T11:25:34;3.30;99.90
1678;DHT22;6034;46.864;15.216;2023-03-01T11:28:04;2.90;99.90
1678;DHT22;6034;46.864;15.216;2023-03-01T11:30:41;2.50;99.90
1678;DHT22;6034;46.864;15.216;2023-03-01T11:33:18;2.90;99.90
1678;DHT22;6034;46.864;15.216;2023-03-01T11:35:53;3.10;99.90
1678;DHT22;6034;46.864;15.216;2023-03-01T11:38:23;2.90;99.90
1678;DHT22;6034;46.864;15.216;2023-03-01T11:40:55;2.80;99.90
1678;DHT22;6034;46.864;15.216;2023-03-01T11:43:33;2.90;99.90
1678;DHT22;6034;46.864;15.216;2023-03-01T11:46:31;2.70;99.90
1678;DHT22;6034;46.864;15.216;2023-03-01T11:49:13;2.90;99.90
1678;DHT22;6034;46.864;15.216;2023-03-01T11:51:49;2.90;99.90
1678;DHT22;6034;46.864;15.216;2023-03-01T11:54:28;2.90;99.90
1678;DHT22;6034;46.864;15.216;2023-03-01T11:57:01;3.00;99.90
1678;DHT22;6034;46.864;15.216;2023-03-01T12:00:13;3.10;99.90
1678;DHT22;6034;46.864;15.216;2023-03-01T12:03:03;3.20;99.90
1678;DHT22;6034;46.864;15.216;2023-03-01T12:09:01;3.40;99.90
1678;DHT22;6034;46.864;15.216;2023-03-01T12:11:41;3.20;99.90
1678;DHT22;6034;46.864;15.216;2023-03-01T12:14:25;3.40;99.90
1678;DHT22;6034;46.864;15.216;2023-03-01T12:17:06;3.50;99.90
1678;DHT22;6034;46.864;15.216;2023-03-01T12:19:54;3.50;99.90
1678;DHT22;6034;46.864;15.216;2023-03-01T12:22:30;3.60;99.90
1678;DHT22;6034;46.864;15.216;2023-03-01T12:25:21;3.60;99.90
1678;DHT22;6034;46.864;15.216;2023-03-01T12:28:15;3.70;99.90
1678;DHT22;6034;46.864;15.216;2023-03-01T12:30:56;3.60;99.90
1678;DHT22;6034;46.864;15.216;2023-03-01T12:33:34;3.80;99.90
1678;DHT22;6034;46.864;15.216;2023-03-01T12:36:31;3.80;99.90
1678;DHT22;6034;46.864;15.216;2023-03-01T12:39:11;3.80;99.90
1678;DHT22;6034;46.864;15.216;2023-03-01T12:41:50;3.90;99.90
1678;DHT22;6034;46.864;15.216;2023-03-01T12:44:30;4.00;99.90
1678;DHT22;6034;46.864;15.216;2023-03-01T12:47:09;4.00;99.90
1678;DHT22;6034;46.864;15.216;2023-03-01T12:49:41;4.00;99.90
1678;DHT22;6034;46.864;15.216;2023-03-01T12:52:16;4.00;99.90
1678;DHT22;6034;46.864;15.216;2023-03-01T12:54:46;4.00;99.90
1678;DHT22;6034;46.864;15.216;2023-03-01T12:57:21;4.00;99.90
1678;DHT22;6034;46.864;15.216;2023-03-01T13:00:03;4.00;99.90
1678;DHT22;6034;46.864;15.216;2023-03-01T13:02:39;4.10;99.90
1678;DHT22;6034;46.864;15.216;2023-03-01T13:05:26;4.10;99.90
1678;DHT22;6034;46.864;15.216;2023-03-01T13:08:04;4.20;99.90
1678;DHT22;6034;46.864;15.216;2023-03-01T13:10:34;4.20;99.90
1678;DHT22;6034;46.864;15.216;2023-03-01T13:13:20;4.20;99.90
1678;DHT22;6034;46.864;15.216;2023-03-01T13:15:48;4.30;99.90
1678;DHT22;6034;46.864;15.216;2023-03-01T13:18:31;4.30;99.90
1678;DHT22;6034;46.864;15.216;2023-03-01T13:21:01;4.30;99.90
1678;DHT22;6034;46.864;15.216;2023-03-01T13:23:33;4.30;99.90
1678;DHT22;6034;46.864;15.216;2023-03-01T13:26:07;4.40;99.90
1678;DHT22;6034;46.864;15.216;2023-03-01T13:28:47;4.40;99.90
1678;DHT22;6034;46.864;15.216;2023-03-01T13:34:43;4.40;99.90
1678;DHT22;6034;46.864;15.216;2023-03-01T13:37:25;4.50;99.90
1678;DHT22;6034;46.864;15.216;2023-03-01T13:39:56;4.50;99.90
1678;DHT22;6034;46.864;15.216;2023-03-01T13:42:43;4.50;99.90
1678;DHT22;6034;46.864;15.216;2023-03-01T13:45:21;4.50;99.90
1678;DHT22;6034;46.864;15.216;2023-03-01T13:47:55;4.50;99.90
1678;DHT22;6034;46.864;15.216;2023-03-01T13:50:27;4.40;99.90
1678;DHT22;6034;46.864;15.216;2023-03-01T13:52:58;4.40;99.90
1678;DHT22;6034;46.864;15.216;2023-03-01T13:55:32;4.40;99.90
1678;DHT22;6034;46.864;15.216;2023-03-01T13:58:04;4.50;99.90
1678;DHT22;6034;46.864;15.216;2023-03-01T14:00:37;4.60;99.90
1678;DHT22;6034;46.864;15.216;2023-03-01T14:03:10;4.50;99.90
1678;DHT22;6034;46.864;15.216;2023-03-01T14:05:38;4.50;99.90
1678;DHT22;6034;46.864;15.216;2023-03-01T14:08:22;4.50;99.90
1678;DHT22;6034;46.864;15.216;2023-03-01T14:11:00;4.60;99.90
1678;DHT22;6034;46.864;15.216;2023-03-01T14:13:44;4.60;99.90
1678;DHT22;6034;46.864;15.216;2023-03-01T14:16:24;4.60;99.90
1678;DHT22;6034;46.864;15.216;2023-03-01T14:19:04;4.60;99.90
1678;DHT22;6034;46.864;15.216;2023-03-01T14:21:33;4.60;99.90
1678;DHT22;6034;46.864;15.216;2023-03-01T14:24:03;4.60;99.90
1678;DHT22;6034;46.864;15.216;2023-03-01T14:26:31;4.50;99.90
1678;DHT22;6034;46.864;15.216;2023-03-01T14:29:00;4.60;99.90
1678;DHT22;6034;46.864;15.216;2023-03-01T14:31:39;4.60;99.90
1678;DHT22;6034;46.864;15.216;2023-03-01T14:34:20;4.60;99.90
1678;DHT22;6034;46.864;15.216;2023-03-01T14:36:47;4.60;99.90
1678;DHT22;6034;46.864;15.216;2023-03-01T14:39:19;4.60;99.90
1678;DHT22;6034;46.864;15.216;2023-03-01T14:41:47;4.60;99.90
1678;DHT22;6034;46.864;15.216;2023-03-01T14:44:18;4.60;99.90
1678;DHT22;6034;46.864;15.216;2023-03-01T14:46:53;4.50;99.90
1678;DHT22;6034;46.864;15.216;2023-03-01T14:49:25;4.50;99.90
1678;DHT22;6034;46.864;15.216;2023-03-01T14:51:57;4.50;99.90
1678;DHT22;6034;46.864;15.216;2023-03-01T14:54:29;4.50;99.90
1678;DHT22;6034;46.864;15.216;2023-03-01T14:57:00;4.50;99.90
1678;DHT22;6034;46.864;15.216;2023-03-01T14:59:27;4.50;99.90
1678;DHT22;6034;46.864;15.216;2023-03-01T15:01:57;4.50;99.90
1678;DHT22;6034;46.864;15.216;2023-03-01T15:04:27;4.50;99.90
1678;DHT22;6034;46.864;15.216;2023-03-01T15:06:55;5.70;99.90
1678;DHT22;6034;46.864;15.216;2023-03-01T15:09:32;4.40;99.90
1678;DHT22;6034;46.864;15.216;2023-03-01T15:12:00;4.40;99.90
1678;DHT22;6034;46.864;15.216;2023-03-01T15:14:38;4.30;99.90
1678;DHT22;6034;46.864;15.216;2023-03-01T15:17:21;4.30;99.90
1678;DHT22;6034;46.864;15.216;2023-03-01T15:19:51;4.40;99.90
1678;DHT22;6034;46.864;15.216;2023-03-01T15:22:19;4.40;99.90
1678;DHT22;6034;46.864;15.216;2023-03-01T15:24:48;4.40;99.90
1678;DHT22;6034;46.864;15.216;2023-03-01T15:27:18;4.30;99.90
1678;DHT22;6034;46.864;15.216;2023-03-01T15:29:50;4.30;99.90
1678;DHT22;6034;46.864;15.216;2023-03-01T15:32:27;4.30;99.90
1678;DHT22;6034;46.864;15.216;2023-03-01T15:34:56;4.30;99.90
1678;DHT22;6034;46.864;15.216;2023-03-01T15:37:40;4.30;99.90
1678;DHT22;6034;46.864;15.216;2023-03-01T15:40:20;4.20;99.90
1678;DHT22;6034;46.864;15.216;2023-03-01T15:42:50;4.20;99.90
1678;DHT22;6034;46.864;15.216;2023-03-01T15:45:23;4.10;99.90
1678;DHT22;6034;46.864;15.216;2023-03-01T15:47:55;4.20;99.90
1678;DHT22;6034;46.864;15.216;2023-03-01T15:50:26;4.20;99.90
1678;DHT22;6034;46.864;15.216;2023-03-01T15:52:55;4.10;99.90
1678;DHT22;6034;46.864;15.216;2023-03-01T15:55:24;4.10;99.90
1678;DHT22;6034;46.864;15.216;2023-03-01T15:57:59;4.10;99.90
1678;DHT22;6034;46.864;15.216;2023-03-01T16:00:27;4.10;99.90
1678;DHT22;6034;46.864;15.216;2023-03-01T16:02:56;4.10;99.90
1678;DHT22;6034;46.864;15.216;2023-03-01T16:05:25;4.10;99.90
1678;DHT22;6034;46.864;15.216;2023-03-01T16:07:53;4.10;99.90
1678;DHT22;6034;46.864;15.216;2023-03-01T16:10:22;4.10;99.90
1678;DHT22;6034;46.864;15.216;2023-03-01T16:12:50;4.10;99.90
1678;DHT22;6034;46.864;15.216;2023-03-01T16:15:20;4.10;99.90
1678;DHT22;6034;46.864;15.216;2023-03-01T16:17:48;4.00;99.90
1678;DHT22;6034;46.864;15.216;2023-03-01T16:20:18;4.00;99.90
1678;DHT22;6034;46.864;15.216;2023-03-01T16:22:45;4.00;99.90
1678;DHT22;6034;46.864;15.216;2023-03-01T16:25:16;4.00;99.90
1678;DHT22;6034;46.864;15.216;2023-03-01T16:27:46;4.00;99.90
1678;DHT22;6034;46.864;15.216;2023-03-01T16:30:16;3.90;99.90
1678;DHT22;6034;46.864;15.216;2023-03-01T16:32:45;3.90;99.90
1678;DHT22;6034;46.864;15.216;2023-03-01T16:35:15;3.80;99.90
1678;DHT22;6034;46.864;15.216;2023-03-01T16:37:45;3.80;99.90
1678;DHT22;6034;46.864;15.216;2023-03-01T16:40:17;3.90;99.90
1678;DHT22;6034;46.864;15.216;2023-03-01T16:42:44;3.90;99.90
1678;DHT22;6034;46.864;15.216;2023-03-01T16:45:12;3.90;99.90
1678;DHT22;6034;46.864;15.216;2023-03-01T16:47:39;3.80;99.90
1678;DHT22;6034;46.864;15.216;2023-03-01T16:50:08;3.80;99.90
1678;DHT22;6034;46.864;15.216;2023-03-01T16:52:35;3.80;99.90
1678;DHT22;6034;46.864;15.216;2023-03-01T16:55:06;3.80;99.90
1678;DHT22;6034;46.864;15.216;2023-03-01T16:57:36;3.80;99.90
1678;DHT22;6034;46.864;15.216;2023-03-01T17:00:03;3.90;99.90
1678;DHT22;6034;46.864;15.216;2023-03-01T17:02:33;3.90;99.90
1678;DHT22;6034;46.864;15.216;2023-03-01T17:05:02;3.80;99.90
1678;DHT22;6034;46.864;15.216;2023-03-01T17:07:30;3.80;99.90
1678;DHT22;6034;46.864;15.216;2023-03-01T17:09:59;3.80;99.90
1678;DHT22;6034;46.864;15.216;2023-03-01T17:12:28;3.90;99.90
1678;DHT22;6034;46.864;15.216;2023-03-01T17:14:58;3.80;99.90
1678;DHT22;6034;46.864;15.216;2023-03-01T17:17:27;3.90;99.90
1678;DHT22;6034;46.864;15.216;2023-03-01T17:19:55;3.90;99.90
1678;DHT22;6034;46.864;15.216;2023-03-01T17:22:23;3.90;99.90
1678;DHT22;6034;46.864;15.216;2023-03-01T17:24:50;3.80;99.90
1678;DHT22;6034;46.864;15.216;2023-03-01T17:27:18;3.90;99.90
1678;DHT22;6034;46.864;15.216;2023-03-01T17:29:47;3.90;99.90
1678;DHT22;6034;46.864;15.216;2023-03-01T17:32:15;3.90;99.90
1678;DHT22;6034;46.864;15.216;2023-03-01T17:34:43;3.80;99.90
1678;DHT22;6034;46.864;15.216;2023-03-01T17:37:11;3.80;99.90
1678;DHT22;6034;46.864;15.216;2023-03-01T17:39:40;3.80;99.90
1678;DHT22;6034;46.864;15.216;2023-03-01T17:42:08;3.80;99.90
1678;DHT22;6034;46.864;15.216;2023-03-01T17:44:35;3.80;99.90
1678;DHT22;6034;46.864;15.216;2023-03-01T17:47:05;3.80;99.90
1678;DHT22;6034;46.864;15.216;2023-03-01T17:49:32;3.80;99.90
1678;DHT22;6034;46.864;15.216;2023-03-01T17:52:00;3.80;99.90
1678;DHT22;6034;46.864;15.216;2023-03-01T17:54:28;3.80;99.90
1678;DHT22;6034;46.864;15.216;2023-03-01T17:56:58;3.80;99.90
1678;DHT22;6034;46.864;15.216;2023-03-01T17:59:27;3.80;99.90
1678;DHT22;6034;46.864;15.216;2023-03-01T18:01:59;3.80;99.90
1678;DHT22;6034;46.864;15.216;2023-03-01T18:04:30;3.80;99.90
1678;DHT22;6034;46.864;15.216;2023-03-01T18:07:00;3.80;99.90
1678;DHT22;6034;46.864;15.216;2023-03-01T18:09:29;3.80;99.90
1678;DHT22;6034;46.864;15.216;2023-03-01T18:11:56;3.90;99.90
1678;DHT22;6034;46.864;15.216;2023-03-01T18:14:26;3.80;99.90
1678;DHT22;6034;46.864;15.216;2023-03-01T18:16:59;3.70;99.90
1678;DHT22;6034;46.864;15.216;2023-03-01T18:19:32;3.80;99.90
1678;DHT22;6034;46.864;15.216;2023-03-01T18:22:01;3.60;99.90
1678;DHT22;6034;46.864;15.216;2023-03-01T18:24:30;3.70;99.90
1678;DHT22;6034;46.864;15.216;2023-03-01T18:26:58;3.70;99.90
1678;DHT22;6034;46.864;15.216;2023-03-01T18:29:26;3.70;99.90
1678;DHT22;6034;46.864;15.216;2023-03-01T18:31:54;3.70;99.90
1678;DHT22;6034;46.864;15.216;2023-03-01T18:34:21;3.70;99.90
1678;DHT22;6034;46.864;15.216;2023-03-01T18:36:51;3.70;99.90
1678;DHT22;6034;46.864;15.216;2023-03-01T18:39:21;3.70;99.90
1678;DHT22;6034;46.864;15.216;2023-03-01T18:41:50;3.70;99.90
1678;DHT22;6034;46.864;15.216;2023-03-01T18:44:18;3.70;99.90
1678;DHT22;6034;46.864;15.216;2023-03-01T18:46:47;3.70;99.90
1678;DHT22;6034;46.864;15.216;2023-03-01T18:49:15;3.70;99.90
1678;DHT22;6034;46.864;15.216;2023-03-01T18:51:43;3.70;99.90
1678;DHT22;6034;46.864;15.216;2023-03-01T18:54:14;3.70;99.90
1678;DHT22;6034;46.864;15.216;2023-03-01T18:56:42;3.70;99.90
1678;DHT22;6034;46.864;15.216;2023-03-01T18:59:10;3.70;99.90
1678;DHT22;6034;46.864;15.216;2023-03-01T19:01:39;3.70;99.90
1678;DHT22;6034;46.864;15.216;2023-03-01T19:04:09;3.70;99.90
1678;DHT22;6034;46.864;15.216;2023-03-01T19:06:37;3.70;99.90
1678;DHT22;6034;46.864;15.216;2023-03-01T19:09:06;3.60;99.90
1678;DHT22;6034;46.864;15.216;2023-03-01T19:11:36;3.70;99.90
1678;DHT22;6034;46.864;15.216;2023-03-01T19:14:05;3.70;99.90
1678;DHT22;6034;46.864;15.216;2023-03-01T19:16:36;3.60;99.90
1678;DHT22;6034;46.864;15.216;2023-03-01T19:19:07;3.70;99.90
1678;DHT22;6034;46.864;15.216;2023-03-01T19:21:41;3.70;99.90
1678;DHT22;6034;46.864;15.216;2023-03-01T19:24:13;3.70;99.90
1678;DHT22;6034;46.864;15.216;2023-03-01T19:26:46;3.70;99.90
1678;DHT22;6034;46.864;15.216;2023-03-01T19:29:16;3.60;99.90
1678;DHT22;6034;46.864;15.216;2023-03-01T19:31:44;3.60;99.90
1678;DHT22;6034;46.864;15.216;2023-03-01T19:34:14;3.60;99.90
1678;DHT22;6034;46.864;15.216;2023-03-01T19:36:43;3.60;99.90
1678;DHT22;6034;46.864;15.216;2023-03-01T19:39:13;3.40;99.90
1678;DHT22;6034;46.864;15.216;2023-03-01T19:41:44;3.50;99.90
1678;DHT22;6034;46.864;15.216;2023-03-01T19:44:12;3.50;99.90
1678;DHT22;6034;46.864;15.216;2023-03-01T19:46:40;3.50;99.90
1678;DHT22;6034;46.864;15.216;2023-03-01T19:49:09;3.00;99.90
1678;DHT22;6034;46.864;15.216;2023-03-01T19:51:37;3.60;99.90
1678;DHT22;6034;46.864;15.216;2023-03-01T19:54:05;3.60;99.90
1678;DHT22;6034;46.864;15.216;2023-03-01T19:56:35;3.60;99.90
1678;DHT22;6034;46.864;15.216;2023-03-01T19:59:05;3.60;99.90
1678;DHT22;6034;46.864;15.216;2023-03-01T20:01:34;3.60;99.90
1678;DHT22;6034;46.864;15.216;2023-03-01T20:04:03;3.60;99.90
1678;DHT22;6034;46.864;15.216;2023-03-01T20:06:35;3.70;99.90
1678;DHT22;6034;46.864;15.216;2023-03-01T20:09:05;3.60;99.90
1678;DHT22;6034;46.864;15.216;2023-03-01T20:11:34;3.60;99.90
1678;DHT22;6034;46.864;15.216;2023-03-01T20:14:04;3.70;99.90
1678;DHT22;6034;46.864;15.216;2023-03-01T20:16:36;3.60;99.90
1678;DHT22;6034;46.864;15.216;2023-03-01T20:19:06;3.60;99.90
1678;DHT22;6034;46.864;15.216;2023-03-01T20:21:34;3.60;99.90
1678;DHT22;6034;46.864;15.216;2023-03-01T20:24:04;3.70;99.90
1678;DHT22;6034;46.864;15.216;2023-03-01T20:26:32;3.60;99.90
1678;DHT22;6034;46.864;15.216;2023-03-01T20:29:00;3.60;99.90
1678;DHT22;6034;46.864;15.216;2023-03-01T20:31:31;3.70;99.90
1678;DHT22;6034;46.864;15.216;2023-03-01T20:34:04;3.70;99.90
1678;DHT22;6034;46.864;15.216;2023-03-01T20:36:33;3.60;99.90
1678;DHT22;6034;46.864;15.216;2023-03-01T20:39:06;3.70;99.90
1678;DHT22;6034;46.864;15.216;2023-03-01T20:41:37;3.70;99.90
1678;DHT22;6034;46.864;15.216;2023-03-01T20:44:05;3.70;99.90
1678;DHT22;6034;46.864;15.216;2023-03-01T20:46:39;3.70;99.90
1678;DHT22;6034;46.864;15.216;2023-03-01T20:49:07;3.70;99.90
1678;DHT22;6034;46.864;15.216;2023-03-01T20:51:37;3.70;99.90
1678;DHT22;6034;46.864;15.216;2023-03-01T20:54:05;3.70;99.90
1678;DHT22;6034;46.864;15.216;2023-03-01T20:56:32;3.70;99.90
1678;DHT22;6034;46.864;15.216;2023-03-01T20:59:00;3.80;99.90
1678;DHT22;6034;46.864;15.216;2023-03-01T21:01:29;3.70;99.90
1678;DHT22;6034;46.864;15.216;2023-03-01T21:03:58;3.60;99.90
1678;DHT22;6034;46.864;15.216;2023-03-01T21:06:26;3.70;99.90
1678;DHT22;6034;46.864;15.216;2023-03-01T21:08:54;3.70;99.90
1678;DHT22;6034;46.864;15.216;2023-03-01T21:11:25;3.70;99.90
1678;DHT22;6034;46.864;15.216;2023-03-01T21:13:53;3.70;99.90
1678;DHT22;6034;46.864;15.216;2023-03-01T21:16:22;3.80;99.90
1678;DHT22;6034;46.864;15.216;2023-03-01T21:18:50;3.70;99.90
1678;DHT22;6034;46.864;15.216;2023-03-01T21:21:21;3.70;99.90
1678;DHT22;6034;46.864;15.216;2023-03-01T21:23:49;3.70;99.90
1678;DHT22;6034;46.864;15.216;2023-03-01T21:26:17;3.70;99.90
1678;DHT22;6034;46.864;15.216;2023-03-01T21:28:45;3.70;99.90
1678;DHT22;6034;46.864;15.216;2023-03-01T21:31:13;3.30;99.90
1678;DHT22;6034;46.864;15.216;2023-03-01T21:33:43;3.40;99.90
1678;DHT22;6034;46.864;15.216;2023-03-01T21:36:10;3.40;99.90
1678;DHT22;6034;46.864;15.216;2023-03-01T21:38:41;3.50;99.90
1678;DHT22;6034;46.864;15.216;2023-03-01T21:41:10;3.60;99.90
1678;DHT22;6034;46.864;15.216;2023-03-01T21:43:38;3.60;99.90
1678;DHT22;6034;46.864;15.216;2023-03-01T21:46:06;3.40;99.90
1678;DHT22;6034;46.864;15.216;2023-03-01T21:48:33;3.40;99.90
1678;DHT22;6034;46.864;15.216;2023-03-01T21:51:00;3.50;99.90
1678;DHT22;6034;46.864;15.216;2023-03-01T21:53:28;3.60;99.90
1678;DHT22;6034;46.864;15.216;2023-03-01T21:55:57;3.60;99.90
1678;DHT22;6034;46.864;15.216;2023-03-01T21:58:24;3.70;99.90
1678;DHT22;6034;46.864;15.216;2023-03-01T22:00:53;3.70;99.90
1678;DHT22;6034;46.864;15.216;2023-03-01T22:03:20;3.70;99.90
1678;DHT22;6034;46.864;15.216;2023-03-01T22:05:52;3.70;99.90
1678;DHT22;6034;46.864;15.216;2023-03-01T22:08:19;3.80;99.90
1678;DHT22;6034;46.864;15.216;2023-03-01T22:10:46;3.80;99.90
1678;DHT22;6034;46.864;15.216;2023-03-01T22:13:15;3.80;99.90
1678;DHT22;6034;46.864;15.216;2023-03-01T22:15:42;3.90;99.90
1678;DHT22;6034;46.864;15.216;2023-03-01T22:18:09;3.80;99.90
1678;DHT22;6034;46.864;15.216;2023-03-01T22:20:36;3.80;99.90
1678;DHT22;6034;46.864;15.216;2023-03-01T22:23:03;3.90;99.90
1678;DHT22;6034;46.864;15.216;2023-03-01T22:25:31;3.80;99.90
1678;DHT22;6034;46.864;15.216;2023-03-01T22:27:58;3.80;99.90
1678;DHT22;6034;46.864;15.216;2023-03-01T22:30:26;3.80;99.90
1678;DHT22;6034;46.864;15.216;2023-03-01T22:32:53;3.80;99.90
1678;DHT22;6034;46.864;15.216;2023-03-01T22:35:20;3.90;99.90
1678;DHT22;6034;46.864;15.216;2023-03-01T22:37:47;3.90;99.90